Time;durP1;ratioP1;P1;durP2;ratioP2;P2;SDS_P1;SDS_P2;PMS_P1;PMS_P2;Temp;Humidity;BMP_temperature;BMP_pressure;BME280_temperature;BME280_humidity;BME280_pressure;Samples;Min_cycle;Max_cycle;Signal;HPM_P1;HPM_P2
2022/11/01 00:00:04;;;;;;;;;;;;;;;;;;355808;27;848;-66
2022/11/01 00:00:15;;;;;;;;;;;;;;;;;;355751;27;936;-66
2022/11/01 00:00:25;;;;;;;;;;;;;;;;;;355698;27;1213;-66
2022/11/01 00:00:36;;;;;;;;;;;;;;;;;;355695;27;1004;-66
2022/11/01 00:00:49;;;;;;;;;;;;;;;;;;355746;27;817;-66
2022/11/01 00:00:59;;;;;;;;;;;;;;;;;;355787;27;848;-66
2022/11/01 00:01:09;;;;;;;;;;;;;;;;;;355685;27;900;-65
2022/11/01 00:01:19;;;;;;;;;;;;;;;;;;355730;27;886;-66
2022/11/01 00:01:29;;;;;;;;;;;;;;;;;;355757;27;1030;-66
2022/11/01 00:01:40;;;;;;;;;;;;;;;;;;355745;27;856;-66
2022/11/01 00:01:51;;;;;;;;;;;;;;;;;;355737;27;1000;-66
2022/11/01 00:02:01;;;;;;;;;;;;;;;;;;355757;27;800;-66
2022/11/01 00:02:12;;;;;;;;;;;;;;;;;;355749;27;916;-66
2022/11/01 00:02:22;;;;;;;;;;;;;;;;;;355749;27;948;-66
2022/11/01 00:02:32;;;;;;;;;;;;;;;;;;355800;27;845;-66
2022/11/01 00:02:42;;;;;;;;;;;;;;;;;;355670;27;905;-66
2022/11/01 00:02:52;;;;;;;;;;;;;;;;;;355688;27;1890;-66
2022/11/01 00:03:03;;;;;;;;;;;;;;;;;;355749;27;923;-67
2022/11/01 00:03:13;;;;;;;;;;;;;;;;;;355734;27;789;-66
2022/11/01 00:03:23;;;;;;;;;;;;;;;;;;355645;27;912;-66
2022/11/01 00:03:33;;;;;;;;;;;;;;;;;;355823;27;896;-66
2022/11/01 00:03:44;;;;;;;;;;;;;;;;;;355770;27;844;-66
2022/11/01 00:03:54;;;;;;;;;;;;;;;;;;354818;27;1220;-66
2022/11/01 00:04:05;;;;;;;;;;;;;;;;;;354288;27;924;-66
2022/11/01 00:04:15;;;;;;;;;;;;;;;;;;354307;27;853;-65
2022/11/01 00:04:25;;;;;;;;;;;;;;;;;;354377;27;883;-66
2022/11/01 00:04:36;;;;;;;;;;;;;;;;;;354274;27;1019;-66
2022/11/01 00:04:46;;;;;;;;;;;;;;;;;;354230;27;916;-66
2022/11/01 00:04:56;;;;;;;;;;;;;;;;;;354303;27;802;-65
2022/11/01 00:05:06;;;;;;;;;;;;;;;;;;354301;27;983;-66
2022/11/01 00:05:17;;;;;;;;;;;;;;;;;;354215;27;943;-66
2022/11/01 00:05:27;;;;;;;;;;;;;;;;;;354230;27;995;-66
2022/11/01 00:05:37;;;;;;;;;;;;;;;;;;354292;27;1038;-66
2022/11/01 00:05:47;;;;;;;;;;;;;;;;;;353762;27;1763;-66
2022/11/01 00:05:58;;;;;;;;;;;;;;;;;;355033;27;1727;-66
2022/11/01 00:06:08;;;;;;;;;;;;;;;;;;355103;27;991;-66
2022/11/01 00:06:18;;;;;;;;;;;;;;;;;;354268;27;913;-66
2022/11/01 00:06:28;;;;;;;;;;;;;;;;;;354300;27;916;-66
2022/11/01 00:06:38;;;;;;;;;;;;;;;;;;354252;27;1000;-65
2022/11/01 00:06:49;;;;;;;;;;;;;;;;;;354248;27;802;-66
2022/11/01 00:06:59;;;;;;;;;;;;;;;;;;354334;27;884;-66
2022/11/01 00:07:09;;;;;;;;;;;;;;;;;;354323;27;967;-65
2022/11/01 00:07:20;;;;;;;;;;;;;;;;;;354263;27;878;-66
2022/11/01 00:07:30;;;;;;;;;;;;;;;;;;354187;27;992;-66
2022/11/01 00:07:40;;;;;;;;;;;;;;;;;;354282;27;920;-66
2022/11/01 00:07:51;;;;;;;;;;;;;;;;;;354301;27;853;-66
2022/11/01 00:08:02;;;;;;;;;;;;;;;;;;354308;27;793;-66
2022/11/01 00:08:12;;;;;;;;;;;;;;;;;;354252;27;956;-66
2022/11/01 00:08:22;;;;;;;;;;;;;;;;;;354263;27;920;-66
2022/11/01 00:08:32;;;;;;;;;;;;;;;;;;354320;27;983;-65
2022/11/01 00:08:43;;;;;;;;;;;;;;;;;;354208;27;1039;-66
2022/11/01 00:08:53;;;;;;;;;;;;;;;;;;354244;27;1015;-66
2022/11/01 00:09:04;;;;;;;;;;;;;;;;;;354284;27;971;-66
2022/11/01 00:09:14;;;;;;;;;;;;;;;;;;354325;27;936;-66
2022/11/01 00:09:24;;;;;;;;;;;;;;;;;;354165;27;1014;-65
2022/11/01 00:09:34;;;;;;;;;;;;;;;;;;354305;27;812;-66
2022/11/01 00:09:44;;;;;;;;;;;;;;;;;;354355;27;971;-66
2022/11/01 00:09:55;;;;;;;;;;;;;;;;;;354267;27;908;-66
2022/11/01 00:10:05;;;;;;;;;;;;;;;;;;354415;27;770;-66
2022/11/01 00:10:15;;;;;;;;;;;;;;;;;;354168;27;960;-66
2022/11/01 00:10:25;;;;;;;;;;;;;;;;;;354290;27;907;-65
2022/11/01 00:10:36;;;;;;;;;;;;;;;;;;354335;27;924;-66
2022/11/01 00:10:46;;;;;;;;;;;;;;;;;;354312;27;943;-66
2022/11/01 00:11:03;;;;;;;;;;;;;;;;;;354313;27;932;-66
2022/11/01 00:11:14;;;;;;;;;;;;;;;;;;354349;27;797;-66
2022/11/01 00:11:25;;;;;;;;;;;;;;;;;;354257;27;948;-66
2022/11/01 00:11:35;;;;;;;;;;;;;;;;;;354186;27;928;-66
2022/11/01 00:11:45;;;;;;;;;;;;;;;;;;354338;27;920;-65
2022/11/01 00:11:56;;;;;;;;;;;;;;;;;;354278;27;845;-66
2022/11/01 00:12:06;;;;;;;;;;;;;;;;;;354369;27;818;-66
2022/11/01 00:12:16;;;;;;;;;;;;;;;;;;353835;27;1983;-66
2022/11/01 00:12:28;;;;;;;;;;;;;;;;;;354019;27;1506;-66
2022/11/01 00:12:38;;;;;;;;;;;;;;;;;;354737;27;1297;-65
2022/11/01 00:12:49;;;;;;;;;;;;;;;;;;355703;27;805;-66
2022/11/01 00:12:59;;;;;;;;;;;;;;;;;;355773;27;975;-66
2022/11/01 00:13:09;;;;;;;;;;;;;;;;;;355481;27;1018;-66
2022/11/01 00:13:19;;;;;;;;;;;;;;;;;;355746;27;845;-65
2022/11/01 00:13:30;;;;;;;;;;;;;;;;;;355738;27;995;-66
2022/11/01 00:13:40;;;;;;;;;;;;;;;;;;355668;27;908;-66
2022/11/01 00:13:51;;;;;;;;;;;;;;;;;;355766;27;880;-66
2022/11/01 00:14:01;;;;;;;;;;;;;;;;;;355700;27;908;-66
2022/11/01 00:14:12;;;;;;;;;;;;;;;;;;355503;27;1010;-66
2022/11/01 00:14:23;;;;;;;;;;;;;;;;;;355689;27;1047;-65
2022/11/01 00:14:33;;;;;;;;;;;;;;;;;;355702;27;928;-66
2022/11/01 00:14:43;;;;;;;;;;;;;;;;;;355707;27;987;-66
2022/11/01 00:14:53;;;;;;;;;;;;;;;;;;355685;27;984;-65
2022/11/01 00:15:04;;;;;;;;;;;;;;;;;;355733;27;995;-66
2022/11/01 00:15:14;;;;;;;;;;;;;;;;;;355618;27;964;-66
2022/11/01 00:15:24;;;;;;;;;;;;;;;;;;355735;27;908;-66
2022/11/01 00:15:34;;;;;;;;;;;;;;;;;;355678;27;959;-66
2022/11/01 00:15:44;;;;;;;;;;;;;;;;;;355659;27;952;-66
2022/11/01 00:15:55;;;;;;;;;;;;;;;;;;355700;27;1150;-66
2022/11/01 00:16:05;;;;;;;;;;;;;;;;;;355771;27;927;-66
2022/11/01 00:16:16;;;;;;;;;;;;;;;;;;355699;27;908;-66
2022/11/01 00:16:27;;;;;;;;;;;;;;;;;;355773;27;851;-66
2022/11/01 00:16:37;;;;;;;;;;;;;;;;;;355702;27;939;-65
2022/11/01 00:16:47;;;;;;;;;;;;;;;;;;355727;27;915;-66
2022/11/01 00:16:58;;;;;;;;;;;;;;;;;;355754;27;1199;-65
2022/11/01 00:17:08;;;;;;;;;;;;;;;;;;355730;27;986;-66
2022/11/01 00:17:18;;;;;;;;;;;;;;;;;;355685;27;919;-66
2022/11/01 00:17:28;;;;;;;;;;;;;;;;;;355741;27;939;-66
2022/11/01 00:17:38;;;;;;;;;;;;;;;;;;355685;27;975;-66
2022/11/01 00:17:49;;;;;;;;;;;;;;;;;;355712;27;836;-66
2022/11/01 00:17:59;;;;;;;;;;;;;;;;;;355678;27;1072;-67
2022/11/01 00:18:09;;;;;;;;;;;;;;;;;;355739;27;970;-66
2022/11/01 00:18:19;;;;;;;;;;;;;;;;;;355706;27;928;-66
2022/11/01 00:18:29;;;;;;;;;;;;;;;;;;355771;27;904;-66
2022/11/01 00:18:40;;;;;;;;;;;;;;;;;;355654;27;798;-66
2022/11/01 00:18:50;;;;;;;;;;;;;;;;;;355717;27;935;-66
2022/11/01 00:19:00;;;;;;;;;;;;;;;;;;355750;27;817;-66
2022/11/01 00:19:10;;;;;;;;;;;;;;;;;;355745;27;932;-65
2022/11/01 00:19:21;;;;;;;;;;;;;;;;;;355661;27;923;-66
2022/11/01 00:19:31;;;;;;;;;;;;;;;;;;355560;27;1321;-66
2022/11/01 00:19:41;;;;;;;;;;;;;;;;;;354561;27;1378;-66
2022/11/01 00:19:51;;;;;;;;;;;;;;;;;;355670;27;911;-66
2022/11/01 00:20:02;;;;;;;;;;;;;;;;;;355666;27;1011;-65
2022/11/01 00:20:12;;;;;;;;;;;;;;;;;;355654;27;848;-66
2022/11/01 00:20:23;;;;;;;;;;;;;;;;;;355759;27;840;-66
2022/11/01 00:20:33;;;;;;;;;;;;;;;;;;355597;27;979;-66
2022/11/01 00:20:43;;;;;;;;;;;;;;;;;;355689;27;995;-66
2022/11/01 00:20:54;;;;;;;;;;;;;;;;;;355744;27;1006;-66
2022/11/01 00:21:04;;;;;;;;;;;;;;;;;;355719;27;780;-66
2022/11/01 00:21:15;;;;;;;;;;;;;;;;;;355709;27;868;-66
2022/11/01 00:21:25;;;;;;;;;;;;;;;;;;355750;27;947;-66
2022/11/01 00:21:35;;;;;;;;;;;;;;;;;;355592;27;1090;-67
2022/11/01 00:21:46;;;;;;;;;;;;;;;;;;355700;27;1030;-66
2022/11/01 00:21:56;;;;;;;;;;;;;;;;;;355698;27;999;-66
2022/11/01 00:22:06;;;;;;;;;;;;;;;;;;355647;27;968;-67
2022/11/01 00:22:17;;;;;;;;;;;;;;;;;;355710;27;983;-66
2022/11/01 00:22:27;;;;;;;;;;;;;;;;;;355732;27;844;-66
2022/11/01 00:22:37;;;;;;;;;;;;;;;;;;355683;27;1130;-66
2022/11/01 00:22:47;;;;;;;;;;;;;;;;;;355654;27;1974;-66
2022/11/01 00:22:57;;;;;;;;;;;;;;;;;;355725;27;904;-66
2022/11/01 00:23:08;;;;;;;;;;;;;;;;;;355711;27;975;-66
2022/11/01 00:23:18;;;;;;;;;;;;;;;;;;355737;27;962;-66
2022/11/01 00:23:28;;;;;;;;;;;;;;;;;;355726;27;896;-65
2022/11/01 00:23:38;;;;;;;;;;;;;;;;;;355747;27;860;-66
2022/11/01 00:23:49;;;;;;;;;;;;;;;;;;355693;27;927;-66
2022/11/01 00:23:59;;;;;;;;;;;;;;;;;;355646;27;880;-66
2022/11/01 00:24:09;;;;;;;;;;;;;;;;;;355765;27;978;-66
2022/11/01 00:24:19;;;;;;;;;;;;;;;;;;355730;27;955;-65
2022/11/01 00:24:30;;;;;;;;;;;;;;;;;;355787;27;837;-65
2022/11/01 00:24:40;;;;;;;;;;;;;;;;;;355661;27;983;-66
2022/11/01 00:24:50;;;;;;;;;;;;;;;;;;355745;27;845;-65
2022/11/01 00:25:01;;;;;;;;;;;;;;;;;;355766;27;852;-65
2022/11/01 00:25:11;;;;;;;;;;;;;;;;;;355721;27;979;-65
2022/11/01 00:25:21;;;;;;;;;;;;;;;;;;355723;27;857;-65
2022/11/01 00:25:31;;;;;;;;;;;;;;;;;;355475;27;1012;-66
2022/11/01 00:25:41;;;;;;;;;;;;;;;;;;355673;27;995;-66
2022/11/01 00:25:52;;;;;;;;;;;;;;;;;;355724;27;963;-66
2022/11/01 00:26:02;;;;;;;;;;;;;;;;;;355707;27;851;-66
2022/11/01 00:26:14;;;;;;;;;;;;;;;;;;355704;27;912;-66
2022/11/01 00:26:24;;;;;;;;;;;;;;;;;;355675;27;987;-66
2022/11/01 00:26:35;;;;;;;;;;;;;;;;;;355693;27;1004;-66
2022/11/01 00:26:45;;;;;;;;;;;;;;;;;;354177;27;1356;-66
2022/11/01 00:26:55;;;;;;;;;;;;;;;;;;354195;27;836;-66
2022/11/01 00:27:05;;;;;;;;;;;;;;;;;;354196;27;931;-66
2022/11/01 00:27:15;;;;;;;;;;;;;;;;;;354173;27;932;-65
2022/11/01 00:27:26;;;;;;;;;;;;;;;;;;354219;27;920;-66
2022/11/01 00:27:36;;;;;;;;;;;;;;;;;;354147;27;1019;-66
2022/11/01 00:27:46;;;;;;;;;;;;;;;;;;354143;27;868;-66
2022/11/01 00:27:56;;;;;;;;;;;;;;;;;;354198;27;994;-66
2022/11/01 00:28:06;;;;;;;;;;;;;;;;;;354131;27;1032;-66
2022/11/01 00:28:16;;;;;;;;;;;;;;;;;;354182;27;872;-66
2022/11/01 00:28:27;;;;;;;;;;;;;;;;;;354210;27;990;-65
2022/11/01 00:28:37;;;;;;;;;;;;;;;;;;354414;27;990;-66
2022/11/01 00:28:47;;;;;;;;;;;;;;;;;;355672;27;1003;-66
2022/11/01 00:28:58;;;;;;;;;;;;;;;;;;354284;27;1236;-66
2022/11/01 00:29:08;;;;;;;;;;;;;;;;;;354319;27;820;-66
2022/11/01 00:29:18;;;;;;;;;;;;;;;;;;354247;27;924;-66
2022/11/01 00:29:29;;;;;;;;;;;;;;;;;;354302;27;908;-65
2022/11/01 00:29:39;;;;;;;;;;;;;;;;;;354322;27;943;-66
2022/11/01 00:29:49;;;;;;;;;;;;;;;;;;354205;27;928;-66
2022/11/01 00:29:59;;;;;;;;;;;;;;;;;;354307;27;926;-66
2022/11/01 00:30:10;;;;;;;;;;;;;;;;;;354300;27;876;-66
2022/11/01 00:30:20;;;;;;;;;;;;;;;;;;354179;27;801;-66
2022/11/01 00:30:30;;;;;;;;;;;;;;;;;;354296;27;935;-66
2022/11/01 00:30:40;;;;;;;;;;;;;;;;;;354286;27;813;-65
2022/11/01 00:30:52;;;;;;;;;;;;;;;;;;354182;27;967;-65
2022/11/01 00:31:02;;;;;;;;;;;;;;;;;;354353;27;798;-66
2022/11/01 00:31:13;;;;;;;;;;;;;;;;;;354274;27;936;-66
2022/11/01 00:31:23;;;;;;;;;;;;;;;;;;354296;27;868;-66
2022/11/01 00:31:34;;;;;;;;;;;;;;;;;;354313;27;1660;-65
2022/11/01 00:31:44;;;;;;;;;;;;;;;;;;355568;27;1785;-65
2022/11/01 00:31:54;;;;;;;;;;;;;;;;;;355463;27;1066;-66
2022/11/01 00:32:05;;;;;;;;;;;;;;;;;;355518;27;852;-66
2022/11/01 00:32:15;;;;;;;;;;;;;;;;;;355647;27;781;-66
2022/11/01 00:32:26;;;;;;;;;;;;;;;;;;355645;27;991;-66
2022/11/01 00:32:36;;;;;;;;;;;;;;;;;;355725;27;785;-65
2022/11/01 00:32:46;;;;;;;;;;;;;;;;;;355653;27;903;-66
2022/11/01 00:32:57;;;;;;;;;;;;;;;;;;355595;27;1016;-66
2022/11/01 00:33:07;;;;;;;;;;;;;;;;;;355697;27;968;-66
2022/11/01 00:33:17;;;;;;;;;;;;;;;;;;355736;27;857;-66
2022/11/01 00:33:27;;;;;;;;;;;;;;;;;;355058;27;1362;-66
2022/11/01 00:33:38;;;;;;;;;;;;;;;;;;355440;27;975;-66
2022/11/01 00:33:48;;;;;;;;;;;;;;;;;;355794;27;833;-66
2022/11/01 00:34:02;;;;;;;;;;;;;;;;;;355660;27;959;-65
2022/11/01 00:34:12;;;;;;;;;;;;;;;;;;355749;27;939;-66
2022/11/01 00:34:22;;;;;;;;;;;;;;;;;;355677;27;927;-66
2022/11/01 00:34:33;;;;;;;;;;;;;;;;;;354779;27;1309;-66
2022/11/01 00:34:43;;;;;;;;;;;;;;;;;;355724;27;920;-66
2022/11/01 00:34:53;;;;;;;;;;;;;;;;;;355707;27;903;-65
2022/11/01 00:35:04;;;;;;;;;;;;;;;;;;355694;27;983;-65
2022/11/01 00:35:14;;;;;;;;;;;;;;;;;;355753;27;852;-66
2022/11/01 00:35:24;;;;;;;;;;;;;;;;;;355742;27;868;-65
2022/11/01 00:35:37;;;;;;;;;;;;;;;;;;355638;27;1041;-65
2022/11/01 00:35:47;;;;;;;;;;;;;;;;;;355714;27;1007;-66
2022/11/01 00:36:01;;;;;;;;;;;;;;;;;;355677;27;1007;-66
2022/11/01 00:36:11;;;;;;;;;;;;;;;;;;355684;27;793;-66
2022/11/01 00:36:22;;;;;;;;;;;;;;;;;;355718;27;951;-65
2022/11/01 00:36:33;;;;;;;;;;;;;;;;;;355647;27;974;-66
2022/11/01 00:36:43;;;;;;;;;;;;;;;;;;355664;27;931;-66
2022/11/01 00:36:53;;;;;;;;;;;;;;;;;;355670;27;904;-66
2022/11/01 00:37:03;;;;;;;;;;;;;;;;;;355456;27;1167;-66
2022/11/01 00:37:14;;;;;;;;;;;;;;;;;;355636;27;1172;-66
2022/11/01 00:37:24;;;;;;;;;;;;;;;;;;355707;27;978;-66
2022/11/01 00:37:34;;;;;;;;;;;;;;;;;;355673;27;995;-66
2022/11/01 00:37:44;;;;;;;;;;;;;;;;;;355668;27;936;-66
2022/11/01 00:37:54;;;;;;;;;;;;;;;;;;355654;27;1089;-65
2022/11/01 00:38:05;;;;;;;;;;;;;;;;;;355723;27;923;-66
2022/11/01 00:38:16;;;;;;;;;;;;;;;;;;354884;27;1449;-66
2022/11/01 00:38:26;;;;;;;;;;;;;;;;;;354208;27;1555;-66
2022/11/01 00:38:36;;;;;;;;;;;;;;;;;;352485;28;1184;-66
2022/11/01 00:38:50;;;;;;;;;;;;;;;;;;352721;28;1014;-66
2022/11/01 00:39:01;;;;;;;;;;;;;;;;;;352768;28;877;-66
2022/11/01 00:39:12;;;;;;;;;;;;;;;;;;352763;28;853;-66
2022/11/01 00:39:22;;;;;;;;;;;;;;;;;;352780;28;970;-66
2022/11/01 00:39:32;;;;;;;;;;;;;;;;;;352754;28;1161;-66
2022/11/01 00:39:42;;;;;;;;;;;;;;;;;;352735;28;940;-66
2022/11/01 00:39:53;;;;;;;;;;;;;;;;;;352767;28;777;-66
2022/11/01 00:40:03;;;;;;;;;;;;;;;;;;352668;28;908;-66
2022/11/01 00:40:14;;;;;;;;;;;;;;;;;;352700;28;999;-66
2022/11/01 00:40:24;;;;;;;;;;;;;;;;;;352771;28;920;-66
2022/11/01 00:40:34;;;;;;;;;;;;;;;;;;353861;27;920;-66
2022/11/01 00:40:45;;;;;;;;;;;;;;;;;;354201;27;909;-65
2022/11/01 00:40:55;;;;;;;;;;;;;;;;;;354260;27;928;-67
2022/11/01 00:41:06;;;;;;;;;;;;;;;;;;354238;27;928;-66
2022/11/01 00:41:18;;;;;;;;;;;;;;;;;;354251;27;955;-66
2022/11/01 00:41:28;;;;;;;;;;;;;;;;;;354246;27;943;-66
2022/11/01 00:41:38;;;;;;;;;;;;;;;;;;354268;27;845;-66
2022/11/01 00:41:49;;;;;;;;;;;;;;;;;;354262;27;797;-66
2022/11/01 00:41:59;;;;;;;;;;;;;;;;;;354252;27;936;-66
2022/11/01 00:42:09;;;;;;;;;;;;;;;;;;354268;27;936;-66
2022/11/01 00:42:19;;;;;;;;;;;;;;;;;;353685;27;1928;-66
2022/11/01 00:42:29;;;;;;;;;;;;;;;;;;354645;27;1630;-67
2022/11/01 00:42:40;;;;;;;;;;;;;;;;;;355656;27;916;-66
2022/11/01 00:42:50;;;;;;;;;;;;;;;;;;355524;27;1968;-67
2022/11/01 00:43:00;;;;;;;;;;;;;;;;;;355672;27;865;-66
2022/11/01 00:43:11;;;;;;;;;;;;;;;;;;355692;27;888;-66
2022/11/01 00:43:21;;;;;;;;;;;;;;;;;;355643;27;1323;-66
2022/11/01 00:43:32;;;;;;;;;;;;;;;;;;355609;27;983;-67
2022/11/01 00:43:42;;;;;;;;;;;;;;;;;;354161;27;1915;-66
2022/11/01 00:43:53;;;;;;;;;;;;;;;;;;354933;27;1715;-66
2022/11/01 00:44:03;;;;;;;;;;;;;;;;;;355259;27;928;-66
2022/11/01 00:44:13;;;;;;;;;;;;;;;;;;355547;27;1955;-67
2022/11/01 00:44:23;;;;;;;;;;;;;;;;;;354183;27;1432;-66
2022/11/01 00:44:34;;;;;;;;;;;;;;;;;;355697;27;983;-67
2022/11/01 00:44:44;;;;;;;;;;;;;;;;;;355733;27;883;-66
2022/11/01 00:44:54;;;;;;;;;;;;;;;;;;355605;27;935;-66
2022/11/01 00:45:04;;;;;;;;;;;;;;;;;;355671;27;805;-66
2022/11/01 00:45:15;;;;;;;;;;;;;;;;;;355665;27;856;-66
2022/11/01 00:45:25;;;;;;;;;;;;;;;;;;355654;27;1017;-66
2022/11/01 00:45:35;;;;;;;;;;;;;;;;;;354671;27;1927;-66
2022/11/01 00:45:45;;;;;;;;;;;;;;;;;;354335;27;1797;-66
2022/11/01 00:45:56;;;;;;;;;;;;;;;;;;354815;27;821;-66
2022/11/01 00:46:06;;;;;;;;;;;;;;;;;;354161;27;1055;-66
2022/11/01 00:46:16;;;;;;;;;;;;;;;;;;354295;27;872;-66
2022/11/01 00:46:26;;;;;;;;;;;;;;;;;;354292;27;1002;-66
2022/11/01 00:46:37;;;;;;;;;;;;;;;;;;354269;27;793;-66
2022/11/01 00:46:47;;;;;;;;;;;;;;;;;;354272;27;907;-66
2022/11/01 00:46:57;;;;;;;;;;;;;;;;;;354153;27;975;-66
2022/11/01 00:47:07;;;;;;;;;;;;;;;;;;354264;27;813;-66
2022/11/01 00:47:17;;;;;;;;;;;;;;;;;;354209;27;1043;-66
2022/11/01 00:47:28;;;;;;;;;;;;;;;;;;354268;27;932;-65
2022/11/01 00:47:38;;;;;;;;;;;;;;;;;;354290;27;920;-66
2022/11/01 00:47:48;;;;;;;;;;;;;;;;;;354203;27;841;-66
2022/11/01 00:47:58;;;;;;;;;;;;;;;;;;354243;27;951;-66
2022/11/01 00:48:08;;;;;;;;;;;;;;;;;;354239;27;844;-66
2022/11/01 00:48:19;;;;;;;;;;;;;;;;;;354270;27;995;-66
2022/11/01 00:48:29;;;;;;;;;;;;;;;;;;354260;27;1024;-66
2022/11/01 00:48:39;;;;;;;;;;;;;;;;;;354170;27;1051;-66
2022/11/01 00:48:49;;;;;;;;;;;;;;;;;;354273;27;856;-66
2022/11/01 00:49:00;;;;;;;;;;;;;;;;;;354158;27;877;-66
2022/11/01 00:49:10;;;;;;;;;;;;;;;;;;354188;27;956;-66
2022/11/01 00:49:21;;;;;;;;;;;;;;;;;;354267;27;912;-65
2022/11/01 00:49:31;;;;;;;;;;;;;;;;;;354220;27;995;-66
2022/11/01 00:49:41;;;;;;;;;;;;;;;;;;354269;27;968;-66
2022/11/01 00:49:51;;;;;;;;;;;;;;;;;;354054;27;978;-67
2022/11/01 00:50:02;;;;;;;;;;;;;;;;;;354235;27;777;-65
2022/11/01 00:50:12;;;;;;;;;;;;;;;;;;354196;27;960;-65
2022/11/01 00:50:22;;;;;;;;;;;;;;;;;;354206;27;822;-66
2022/11/01 00:50:32;;;;;;;;;;;;;;;;;;354213;27;931;-66
2022/11/01 00:50:43;;;;;;;;;;;;;;;;;;354246;27;943;-65
2022/11/01 00:50:53;;;;;;;;;;;;;;;;;;354239;27;905;-66
2022/11/01 00:51:03;;;;;;;;;;;;;;;;;;354183;27;992;-66
2022/11/01 00:51:13;;;;;;;;;;;;;;;;;;354199;27;901;-66
2022/11/01 00:51:24;;;;;;;;;;;;;;;;;;354251;27;885;-66
2022/11/01 00:51:34;;;;;;;;;;;;;;;;;;354230;27;916;-66
2022/11/01 00:51:44;;;;;;;;;;;;;;;;;;354213;27;1012;-66
2022/11/01 00:51:54;;;;;;;;;;;;;;;;;;354259;27;908;-66
2022/11/01 00:52:04;;;;;;;;;;;;;;;;;;354257;27;789;-67
2022/11/01 00:52:15;;;;;;;;;;;;;;;;;;354205;27;936;-67
2022/11/01 00:52:25;;;;;;;;;;;;;;;;;;354208;27;983;-66
2022/11/01 00:52:35;;;;;;;;;;;;;;;;;;354221;27;908;-66
2022/11/01 00:52:45;;;;;;;;;;;;;;;;;;354277;27;915;-65
2022/11/01 00:52:55;;;;;;;;;;;;;;;;;;354180;27;831;-65
2022/11/01 00:53:06;;;;;;;;;;;;;;;;;;353708;27;1452;-66
2022/11/01 00:53:16;;;;;;;;;;;;;;;;;;354154;27;952;-66
2022/11/01 00:53:27;;;;;;;;;;;;;;;;;;354220;27;932;-66
2022/11/01 00:53:37;;;;;;;;;;;;;;;;;;354282;27;856;-65
2022/11/01 00:53:47;;;;;;;;;;;;;;;;;;354190;27;967;-66
2022/11/01 00:53:57;;;;;;;;;;;;;;;;;;354224;27;1033;-66
2022/11/01 00:54:08;;;;;;;;;;;;;;;;;;354219;27;912;-66
2022/11/01 00:54:18;;;;;;;;;;;;;;;;;;354181;27;1000;-65
2022/11/01 00:54:28;;;;;;;;;;;;;;;;;;354263;27;987;-65
2022/11/01 00:54:38;;;;;;;;;;;;;;;;;;354168;27;992;-65
2022/11/01 00:54:48;;;;;;;;;;;;;;;;;;354286;27;991;-65
2022/11/01 00:54:59;;;;;;;;;;;;;;;;;;354221;27;1067;-66
2022/11/01 00:55:09;;;;;;;;;;;;;;;;;;354325;27;853;-65
2022/11/01 00:55:19;;;;;;;;;;;;;;;;;;354122;27;1059;-66
2022/11/01 00:55:29;;;;;;;;;;;;;;;;;;354239;27;888;-66
2022/11/01 00:55:39;;;;;;;;;;;;;;;;;;354251;27;856;-65
2022/11/01 00:55:50;;;;;;;;;;;;;;;;;;354287;27;908;-65
2022/11/01 00:56:01;;;;;;;;;;;;;;;;;;354279;27;860;-66
2022/11/01 00:56:11;;;;;;;;;;;;;;;;;;354101;27;990;-65
2022/11/01 00:56:21;;;;;;;;;;;;;;;;;;354203;27;911;-67
2022/11/01 00:56:31;;;;;;;;;;;;;;;;;;354066;27;1166;-66
2022/11/01 00:56:41;;;;;;;;;;;;;;;;;;354244;27;908;-66
2022/11/01 00:56:52;;;;;;;;;;;;;;;;;;354242;27;1239;-66
2022/11/01 00:57:02;;;;;;;;;;;;;;;;;;354249;27;912;-66
2022/11/01 00:57:12;;;;;;;;;;;;;;;;;;354214;27;849;-65
2022/11/01 00:57:22;;;;;;;;;;;;;;;;;;354174;27;936;-66
2022/11/01 00:57:32;;;;;;;;;;;;;;;;;;354273;27;916;-66
2022/11/01 00:57:43;;;;;;;;;;;;;;;;;;354205;27;991;-65
2022/11/01 00:57:53;;;;;;;;;;;;;;;;;;354245;27;1003;-65
2022/11/01 00:58:03;;;;;;;;;;;;;;;;;;354248;27;927;-66
2022/11/01 00:58:15;;;;;;;;;;;;;;;;;;354189;27;975;-66
2022/11/01 00:58:25;;;;;;;;;;;;;;;;;;354241;27;940;-66
2022/11/01 00:58:35;;;;;;;;;;;;;;;;;;354296;27;845;-66
2022/11/01 00:58:45;;;;;;;;;;;;;;;;;;354226;27;797;-66
2022/11/01 00:58:55;;;;;;;;;;;;;;;;;;354286;27;864;-66
2022/11/01 00:59:06;;;;;;;;;;;;;;;;;;354229;27;908;-66
2022/11/01 00:59:16;;;;;;;;;;;;;;;;;;354152;27;1020;-66
2022/11/01 00:59:26;;;;;;;;;;;;;;;;;;354181;27;924;-66
2022/11/01 00:59:36;;;;;;;;;;;;;;;;;;354268;27;833;-65
2022/11/01 00:59:46;;;;;;;;;;;;;;;;;;354159;27;1027;-66
2022/11/01 00:59:57;;;;;;;;;;;;;;;;;;354266;27;856;-66
2022/11/01 01:00:07;;;;;;;;;;;;;;;;;;354220;27;921;-65
2022/11/01 01:00:17;;;;;;;;;;;;;;;;;;354177;27;928;-65
2022/11/01 01:00:28;;;;;;;;;;;;;;;;;;353945;27;1201;-65
2022/11/01 01:00:38;;;;;;;;;;;;;;;;;;354222;27;912;-66
2022/11/01 01:00:48;;;;;;;;;;;;;;;;;;354181;27;1006;-65
2022/11/01 01:00:59;;;;;;;;;;;;;;;;;;354170;27;1433;-66
2022/11/01 01:01:09;;;;;;;;;;;;;;;;;;354327;27;888;-66
2022/11/01 01:01:19;;;;;;;;;;;;;;;;;;354131;27;984;-66
2022/11/01 01:01:31;;;;;;;;;;;;;;;;;;354167;27;904;-66
2022/11/01 01:01:41;;;;;;;;;;;;;;;;;;354223;27;979;-66
2022/11/01 01:01:51;;;;;;;;;;;;;;;;;;354236;27;959;-66
2022/11/01 01:02:01;;;;;;;;;;;;;;;;;;354167;27;1008;-66
2022/11/01 01:02:11;;;;;;;;;;;;;;;;;;354222;27;991;-65
2022/11/01 01:02:22;;;;;;;;;;;;;;;;;;354276;27;920;-66
2022/11/01 01:02:32;;;;;;;;;;;;;;;;;;354220;27;943;-65
2022/11/01 01:02:42;;;;;;;;;;;;;;;;;;354201;27;932;-66
2022/11/01 01:02:53;;;;;;;;;;;;;;;;;;354198;27;1910;-65
2022/11/01 01:03:03;;;;;;;;;;;;;;;;;;354236;27;865;-65
2022/11/01 01:03:14;;;;;;;;;;;;;;;;;;354318;27;785;-65
2022/11/01 01:03:24;;;;;;;;;;;;;;;;;;354195;27;943;-66
2022/11/01 01:03:34;;;;;;;;;;;;;;;;;;354182;27;829;-66
2022/11/01 01:03:44;;;;;;;;;;;;;;;;;;354192;27;1273;-66
2022/11/01 01:03:55;;;;;;;;;;;;;;;;;;354144;27;1232;-66
2022/11/01 01:04:05;;;;;;;;;;;;;;;;;;354139;28;1039;-66
2022/11/01 01:04:15;;;;;;;;;;;;;;;;;;354231;27;972;-66
2022/11/01 01:04:25;;;;;;;;;;;;;;;;;;354255;27;813;-66
2022/11/01 01:04:40;;;;;;;;;;;;;;;;;;354183;27;904;-66
2022/11/01 01:04:50;;;;;;;;;;;;;;;;;;354200;27;920;-66
2022/11/01 01:05:00;;;;;;;;;;;;;;;;;;354171;27;1030;-66
2022/11/01 01:05:11;;;;;;;;;;;;;;;;;;354235;27;928;-66
2022/11/01 01:05:21;;;;;;;;;;;;;;;;;;354247;27;983;-66
2022/11/01 01:05:32;;;;;;;;;;;;;;;;;;354137;27;1042;-66
2022/11/01 01:05:42;;;;;;;;;;;;;;;;;;354178;27;1036;-67
2022/11/01 01:05:52;;;;;;;;;;;;;;;;;;354155;27;967;-65
2022/11/01 01:06:03;;;;;;;;;;;;;;;;;;354292;27;853;-66
2022/11/01 01:06:13;;;;;;;;;;;;;;;;;;354160;27;909;-66
2022/11/01 01:06:23;;;;;;;;;;;;;;;;;;354215;27;974;-66
2022/11/01 01:06:33;;;;;;;;;;;;;;;;;;354209;27;951;-66
2022/11/01 01:06:44;;;;;;;;;;;;;;;;;;354210;27;948;-66
2022/11/01 01:06:54;;;;;;;;;;;;;;;;;;354180;27;1002;-67
2022/11/01 01:07:04;;;;;;;;;;;;;;;;;;354157;27;984;-66
2022/11/01 01:07:15;;;;;;;;;;;;;;;;;;354220;27;929;-65
2022/11/01 01:07:25;;;;;;;;;;;;;;;;;;354251;27;924;-65
2022/11/01 01:07:35;;;;;;;;;;;;;;;;;;354175;27;848;-66
2022/11/01 01:07:45;;;;;;;;;;;;;;;;;;353697;27;1437;-66
2022/11/01 01:07:56;;;;;;;;;;;;;;;;;;354917;27;1612;-66
2022/11/01 01:08:06;;;;;;;;;;;;;;;;;;355574;27;856;-65
2022/11/01 01:08:16;;;;;;;;;;;;;;;;;;355591;27;971;-66
2022/11/01 01:08:27;;;;;;;;;;;;;;;;;;355659;27;868;-66
2022/11/01 01:08:37;;;;;;;;;;;;;;;;;;355630;27;971;-66
2022/11/01 01:08:47;;;;;;;;;;;;;;;;;;355426;27;1147;-66
2022/11/01 01:08:59;;;;;;;;;;;;;;;;;;355595;27;916;-66
2022/11/01 01:09:10;;;;;;;;;;;;;;;;;;355635;27;955;-66
2022/11/01 01:09:20;;;;;;;;;;;;;;;;;;355668;27;813;-65
2022/11/01 01:09:30;;;;;;;;;;;;;;;;;;355637;27;936;-66
2022/11/01 01:09:41;;;;;;;;;;;;;;;;;;355610;27;936;-66
2022/11/01 01:09:51;;;;;;;;;;;;;;;;;;355619;27;943;-66
2022/11/01 01:10:02;;;;;;;;;;;;;;;;;;355708;27;774;-66
2022/11/01 01:10:12;;;;;;;;;;;;;;;;;;355684;27;829;-66
2022/11/01 01:10:23;;;;;;;;;;;;;;;;;;355610;27;984;-65
2022/11/01 01:10:33;;;;;;;;;;;;;;;;;;355605;27;1008;-66
2022/11/01 01:10:43;;;;;;;;;;;;;;;;;;355635;27;987;-66
2022/11/01 01:10:54;;;;;;;;;;;;;;;;;;355525;27;1210;-66
2022/11/01 01:11:04;;;;;;;;;;;;;;;;;;355563;27;897;-65
2022/11/01 01:11:15;;;;;;;;;;;;;;;;;;355710;27;789;-66
2022/11/01 01:11:25;;;;;;;;;;;;;;;;;;355663;27;840;-66
2022/11/01 01:11:36;;;;;;;;;;;;;;;;;;355649;27;920;-66
2022/11/01 01:11:46;;;;;;;;;;;;;;;;;;355588;27;955;-66
2022/11/01 01:11:58;;;;;;;;;;;;;;;;;;355541;27;804;-66
2022/11/01 01:12:08;;;;;;;;;;;;;;;;;;355655;27;975;-66
2022/11/01 01:12:18;;;;;;;;;;;;;;;;;;355667;27;916;-66
2022/11/01 01:12:28;;;;;;;;;;;;;;;;;;355692;27;920;-66
2022/11/01 01:12:38;;;;;;;;;;;;;;;;;;355611;27;979;-66
2022/11/01 01:12:49;;;;;;;;;;;;;;;;;;355600;27;940;-66
2022/11/01 01:12:59;;;;;;;;;;;;;;;;;;355641;27;923;-66
2022/11/01 01:13:09;;;;;;;;;;;;;;;;;;355666;27;781;-66
2022/11/01 01:13:20;;;;;;;;;;;;;;;;;;355626;27;975;-66
2022/11/01 01:13:30;;;;;;;;;;;;;;;;;;355701;27;864;-66
2022/11/01 01:13:40;;;;;;;;;;;;;;;;;;355397;27;1019;-66
2022/11/01 01:13:50;;;;;;;;;;;;;;;;;;355620;27;845;-66
2022/11/01 01:14:01;;;;;;;;;;;;;;;;;;355321;27;1333;-66
2022/11/01 01:14:11;;;;;;;;;;;;;;;;;;355681;27;959;-66
2022/11/01 01:14:21;;;;;;;;;;;;;;;;;;355388;27;1152;-66